Time;durP1;ratioP1;P1;durP2;ratioP2;P2;SDS_P1;SDS_P2;PMS_P1;PMS_P2;Temp;Humidity;BMP_temperature;BMP_pressure;BME280_temperature;BME280_humidity;BME280_pressure;Samples;Min_cycle;Max_cycle;Signal;HPM_P1;HPM_P2
2022/08/07 00:03:13;;;;;;;11.20;9.30;;;;;;;13.46;76.86;99378.71;433566;1267;97512;-41
2022/08/07 00:13:22;;;;;;;11.40;8.20;;;;;;;13.37;77.18;99381.44;433908;1267;108899;-39
2022/08/07 00:23:34;;;;;;;9.30;6.80;;;;;;;13.50;77.50;99387.20;433984;1268;96593;-41
2022/08/07 00:33:45;;;;;;;9.80;8.70;;;;;;;13.51;77.37;99394.88;433738;1267;110664;-41
2022/08/07 00:43:54;;;;;;;12.00;8.90;;;;;;;13.25;77.33;99399.71;433804;1266;108829;-40
2022/08/07 00:54:09;;;;;;;11.70;7.40;;;;;;;13.00;77.11;99397.83;433990;1267;97936;-40
2022/08/07 01:04:37;;;;;;;12.00;7.10;;;;;;;12.76;77.35;99394.60;433700;1267;108231;31
2022/08/07 01:14:49;;;;;;;15.50;7.20;;;;;;;12.72;77.44;99398.59;432204;1271;97890;-40
2022/08/07 01:25:06;;;;;;;12.40;8.00;;;;;;;12.48;77.50;99406.23;432263;1270;111849;-40
2022/08/07 01:35:34;;;;;;;11.70;6.80;;;;;;;12.47;77.78;99402.77;432011;1270;108762;-41
2022/08/07 01:46:01;;;;;;;8.50;6.70;;;;;;;12.40;77.73;99403.55;432694;1270;97916;-39
2022/08/07 01:56:06;;;;;;;12.30;6.10;;;;;;;12.34;77.85;99407.56;432935;1271;107773;-39
2022/08/07 02:06:12;;;;;;;16.10;6.30;;;;;;;12.34;78.10;99404.81;432683;1270;97530;-39
2022/08/07 02:16:42;;;;;;;8.80;7.60;;;;;;;12.47;78.32;99398.53;433101;1270;110476;-39
2022/08/07 02:26:51;;;;;;;12.80;8.10;;;;;;;12.34;78.09;99404.16;433278;1271;108692;-39
2022/08/07 02:37:01;;;;;;;10.70;7.50;;;;;;;12.03;78.03;99402.98;432938;1271;108901;-39
2022/08/07 02:57:30;;;;;;;11.20;6.10;;;;;;;12.07;78.47;99401.89;433077;1270;108857;-40
2022/08/07 03:07:42;;;;;;;7.60;5.90;;;;;;;12.12;78.53;99417.34;432944;1271;97884;-42
2022/08/07 03:18:10;;;;;;;8.30;5.70;;;;;;;11.98;78.30;99414.66;432873;1269;111026;-41
2022/08/07 03:28:23;;;;;;;7.10;5.80;;;;;;;11.97;78.57;99418.05;433193;1271;109158;-41
2022/08/07 03:38:45;;;;;;;8.90;5.70;;;;;;;11.99;78.64;99412.65;433190;1270;97385;-41
2022/08/07 03:48:53;;;;;;;7.60;6.00;;;;;;;11.87;78.57;99414.17;433413;1271;108855;-41
2022/08/07 03:59:11;;;;;;;9.70;5.50;;;;;;;11.99;78.83;99420.00;433182;1270;96708;-41
2022/08/07 04:09:19;;;;;;;6.50;4.50;;;;;;;12.15;78.61;99420.90;433161;1270;111163;-41
2022/08/07 04:19:30;;;;;;;8.30;4.50;;;;;;;12.87;78.90;99426.51;433179;1270;108737;-41
2022/08/07 04:29:57;;;;;;;7.20;4.80;;;;;;;14.27;77.53;99424.38;433121;1271;97926;-41
2022/08/07 04:40:12;;;;;;;8.70;4.30;;;;;;;13.93;76.94;99435.11;433113;1270;110653;-40
2022/08/07 04:50:18;;;;;;;5.40;4.30;;;;;;;14.34;77.08;99439.33;433059;1271;108779;-41
2022/08/07 05:00:36;;;;;;;7.20;3.70;;;;;;;16.25;76.59;99442.92;432736;1270;108196;-41
2022/08/07 05:10:48;;;;;;;8.50;4.90;;;;;;;17.99;75.57;99444.84;432738;1271;97580;-41
2022/08/07 05:21:04;;;;;;;7.40;3.70;;;;;;;18.85;74.11;99442.78;431238;1270;1270528;-39
2022/08/07 05:31:13;;;;;;;6.50;3.80;;;;;;;19.20;72.70;99452.21;433418;1270;108537;-39
2022/08/07 05:41:23;;;;;;;7.60;3.70;;;;;;;18.54;72.03;99449.69;432550;1271;97458;-40
2022/08/07 05:51:49;;;;;;;5.90;4.90;;;;;;;19.21;72.14;99449.41;433139;1270;111535;-39
2022/08/07 06:01:59;;;;;;;10.60;5.50;;;;;;;19.08;71.20;99453.46;433054;1270;107128;-41
2022/08/07 06:12:07;;;;;;;8.30;5.00;;;;;;;19.18;70.14;99454.30;433274;1270;96584;-40
2022/08/07 06:22:18;;;;;;;8.70;4.90;;;;;;;19.38;70.37;99459.88;433130;1270;98000;-40
2022/08/07 06:32:33;;;;;;;6.30;5.40;;;;;;;20.01;69.83;99463.33;433118;1271;108572;-41
2022/08/07 06:42:42;;;;;;;7.30;6.50;;;;;;;20.39;69.16;99466.27;433038;1269;108892;-40
2022/08/07 06:52:55;;;;;;;9.50;8.10;;;;;;;20.19;68.25;99473.45;433162;1269;98092;-41
2022/08/07 07:03:03;;;;;;;11.70;6.50;;;;;;;20.35;67.84;99469.45;433053;1270;111570;-41
2022/08/07 07:13:17;;;;;;;7.50;6.80;;;;;;;20.96;67.92;99474.00;433069;1270;108781;-39
2022/08/07 07:23:44;;;;;;;8.60;7.60;;;;;;;20.47;66.13;99481.23;433147;1270;97932;-41
2022/08/07 07:34:16;;;;;;;10.60;9.60;;;;;;;20.54;66.79;99479.34;432982;1270;97943;-40
2022/08/07 07:44:27;;;;;;;11.60;9.70;;;;;;;20.22;65.37;99477.58;433178;1270;111038;-40
2022/08/07 07:54:36;;;;;;;10.70;9.20;;;;;;;19.84;66.19;99475.00;433026;1270;108699;-40
2022/08/07 08:04:46;;;;;;;7.50;6.70;;;;;;;20.71;66.39;99474.27;433230;1271;98165;-40
2022/08/07 08:14:56;;;;;;;7.90;6.10;;;;;;;20.52;65.14;99477.09;433222;1271;111131;-41
2022/08/07 08:35:46;;;;;;;6.30;4.10;;;;;;;21.15;64.18;99471.70;432581;1271;108537;-41
2022/08/07 08:46:09;;;;;;;4.60;4.20;;;;;;;21.19;62.50;99472.98;432558;1271;97912;-41
2022/08/07 08:56:14;;;;;;;4.00;3.70;;;;;;;21.65;61.04;99477.95;433085;1270;111197;-40
2022/08/07 09:06:29;;;;;;;2.10;1.90;;;;;;;21.52;58.60;99484.36;433227;1271;108718;-41
2022/08/07 09:16:36;;;;;;;3.70;1.50;;;;;;;22.20;58.55;99467.84;433500;1271;97999;-40
2022/08/07 09:47:09;;;;;;;3.80;1.70;;;;;;;22.09;50.15;99450.93;433375;1271;108794;-41
2022/08/07 09:58:03;;;;;;;5.20;2.10;;;;;;;21.51;50.94;99445.06;433419;1268;97777;-41
2022/08/07 10:08:12;;;;;;;3.90;1.70;;;;;;;21.36;51.48;99444.91;432957;1271;97861;-41
2022/08/07 10:18:22;;;;;;;3.10;2.10;;;;;;;21.80;51.25;99432.41;433020;1271;111236;-41
2022/08/07 10:28:51;;;;;;;2.00;1.80;;;;;;;21.91;50.04;99422.41;432952;1271;108221;-41
2022/08/07 10:49:02;;;;;;;1.70;1.60;;;;;;;22.28;48.94;99390.68;432914;1269;110708;-41
2022/08/07 11:09:29;;;;;;;5.20;1.60;;;;;;;22.06;48.93;99379.89;433262;1270;97917;-40
2022/08/07 11:20:01;;;;;;;2.30;1.90;;;;;;;22.52;49.15;99366.61;432478;1270;110362;-40
2022/08/07 11:30:11;;;;;;;3.80;1.20;;;;;;;22.72;48.81;99365.36;433053;1271;108563;-41
2022/08/07 11:40:24;;;;;;;3.00;1.40;;;;;;;21.89;47.72;99369.62;433027;1271;100131;-41
2022/08/07 11:50:35;;;;;;;3.80;1.60;;;;;;;21.53;47.86;99367.38;433112;1271;98139;-41
2022/08/07 12:01:01;;;;;;;4.50;1.30;;;;;;;21.31;49.12;99364.20;433038;1271;110855;-39
2022/08/07 12:11:15;;;;;;;3.60;1.20;;;;;;;21.32;48.67;99360.58;433004;1271;109164;-40
2022/08/07 12:21:35;;;;;;;1.80;1.20;;;;;;;21.40;48.66;99350.13;433047;1271;97890;-40
2022/08/07 12:32:03;;;;;;;3.40;1.40;;;;;;;21.76;47.76;99330.01;432863;1271;97897;-40
2022/08/07 12:42:15;;;;;;;1.30;1.10;;;;;;;22.34;47.15;99317.54;433077;1271;110930;-40
2022/08/07 12:52:41;;;;;;;4.70;1.50;;;;;;;22.19;46.72;99312.50;433148;1271;109018;-38
2022/08/07 13:02:56;;;;;;;4.20;1.70;;;;;;;21.84;47.67;99311.95;433132;1270;97913;-40
2022/08/07 13:13:05;;;;;;;3.10;1.30;;;;;;;21.84;47.10;99306.39;432352;1270;110072;-41
2022/08/07 13:23:17;;;;;;;2.50;1.60;;;;;;;21.93;45.67;99303.38;432943;1271;108885;-41
2022/08/07 13:33:43;;;;;;;3.20;2.20;;;;;;;22.04;45.32;99288.30;433178;1271;97919;-42
2022/08/07 13:44:11;;;;;;;1.90;1.60;;;;;;;22.39;45.55;99283.31;433076;1270;98150;-41
2022/08/07 14:14:59;;;;;;;5.30;2.10;;;;;;;21.93;44.43;99263.75;432916;1271;98567;-41
2022/08/07 14:25:11;;;;;;;2.30;1.10;;;;;;;22.05;45.11;99254.08;433324;1271;108935;-40
2022/08/07 14:35:17;;;;;;;2.20;1.80;;;;;;;22.12;43.99;99247.91;432900;1271;108120;-40
2022/08/07 14:45:47;;;;;;;2.10;1.00;;;;;;;22.18;43.76;99244.27;433597;1270;97939;-41
2022/08/07 14:56:12;;;;;;;4.30;1.40;;;;;;;22.14;43.84;99245.95;433346;1271;98058;-40
2022/08/07 15:06:36;;;;;;;2.20;1.10;;;;;;;21.85;44.56;99232.46;433029;1270;110804;-39
2022/08/07 15:16:44;;;;;;;4.00;1.30;;;;;;;21.96;45.34;99215.73;433291;1271;109184;-40
2022/08/07 15:26:59;;;;;;;2.80;1.20;;;;;;;22.22;44.85;99207.20;433216;1270;108236;-40
2022/08/07 15:37:30;;;;;;;3.90;0.90;;;;;;;22.25;43.32;99202.54;433098;1271;97583;-40
2022/08/07 15:58:09;;;;;;;0.80;0.70;;;;;;;21.70;43.63;99199.77;432891;1270;107400;-41
2022/08/07 16:08:29;;;;;;;2.00;0.60;;;;;;;21.25;43.97;99200.16;433412;1271;98082;-41
2022/08/07 16:19:03;;;;;;;2.20;0.80;;;;;;;20.85;44.88;99199.31;433148;1271;98160;-41
2022/08/07 16:29:19;;;;;;;2.30;0.70;;;;;;;21.04;45.78;99192.52;432393;1270;111136;-42
2022/08/07 16:39:54;;;;;;;6.10;0.80;;;;;;;21.24;45.17;99185.01;433123;1271;107758;-40
2022/08/07 17:00:25;;;;;;;2.80;1.10;;;;;;;21.05;45.52;99190.23;432885;1271;111261;-42
2022/08/07 17:21:04;;;;;;;2.50;0.70;;;;;;;20.62;46.00;99195.59;431900;1271;1495616;-42
2022/08/07 17:42:15;;;;;;;4.00;1.40;;;;;;;20.02;46.58;99203.81;432578;1270;111051;-41
2022/08/07 17:52:24;;;;;;;3.60;1.20;;;;;;;19.69;47.51;99208.16;432711;1270;108302;-41
2022/08/07 18:02:40;;;;;;;1.10;0.90;;;;;;;19.35;48.21;99209.39;432668;1270;100275;-41
2022/08/07 18:13:11;;;;;;;1.70;1.60;;;;;;;18.99;48.72;99217.87;432739;1271;97503;-41
2022/08/07 18:23:24;;;;;;;4.70;1.60;;;;;;;18.68;49.65;99230.36;432716;1271;111022;-41
2022/08/07 18:34:07;;;;;;;4.30;1.40;;;;;;;18.40;49.92;99243.98;432927;1271;108903;-41
2022/08/07 18:44:38;;;;;;;3.10;1.90;;;;;;;18.18;50.49;99247.68;432720;1271;108779;-40
2022/08/07 18:55:04;;;;;;;4.50;2.20;;;;;;;18.00;51.08;99250.04;432589;1271;97483;-41
2022/08/07 19:05:39;;;;;;;3.00;1.80;;;;;;;17.85;51.30;99255.60;432482;1270;111063;-40
2022/08/07 19:16:04;;;;;;;4.70;1.70;;;;;;;17.62;52.03;99262.37;432516;1270;107067;-41
2022/08/07 19:26:29;;;;;;;1.90;1.70;;;;;;;17.33;52.73;99261.34;432293;1270;97926;-41
2022/08/07 19:37:00;;;;;;;2.40;1.70;;;;;;;17.05;53.47;99266.51;432595;1270;111086;-41
2022/08/07 19:47:29;;;;;;;3.00;2.10;;;;;;;16.70;54.18;99274.39;432390;1270;108810;-40
2022/08/07 19:57:47;;;;;;;4.20;2.00;;;;;;;16.47;55.06;99280.70;432439;1270;97938;-40
2022/08/07 20:08:19;;;;;;;6.50;2.90;;;;;;;16.23;55.71;99286.92;432562;1270;110734;-40
2022/08/07 20:18:26;;;;;;;5.80;2.60;;;;;;;15.95;56.76;99294.59;432739;1271;108064;-41
2022/08/07 20:28:42;;;;;;;6.60;3.10;;;;;;;15.56;57.18;99283.94;432863;1271;97891;-40
2022/08/07 20:38:53;;;;;;;5.20;2.80;;;;;;;15.20;57.89;99288.36;432691;1271;110917;-41
2022/08/07 20:49:16;;;;;;;4.00;2.70;;;;;;;15.07;58.76;99297.84;432854;1270;108985;-41
2022/08/07 21:10:13;;;;;;;3.80;3.50;;;;;;;14.56;59.70;99292.67;432763;1271;111233;-41
2022/08/07 21:20:30;;;;;;;;;;;;;;;14.09;60.63;99301.36;432656;1271;108852;-39
2022/08/07 21:40:57;;;;;;;4.60;3.40;;;;;;;13.85;61.99;99293.84;432680;1271;111184;-40
2022/08/07 21:51:08;;;;;;;6.50;3.90;;;;;;;13.63;62.60;99302.91;432694;1271;108906;-41
2022/08/07 22:01:29;;;;;;;9.90;5.20;;;;;;;13.51;63.37;99300.24;432428;1270;97885;-41
2022/08/07 22:12:00;;;;;;;4.40;3.40;;;;;;;13.19;63.68;99301.55;433092;1270;111106;-39
2022/08/07 22:22:19;;;;;;;7.60;4.10;;;;;;;13.00;64.27;99300.30;433007;1270;108701;-41
2022/08/07 22:32:39;;;;;;;7.20;3.70;;;;;;;12.93;64.74;99307.35;433073;1270;97761;-41
2022/08/07 22:42:50;;;;;;;9.30;5.60;;;;;;;12.90;65.49;99308.83;433136;1271;108983;-40
2022/08/07 22:53:31;;;;;;;16.30;5.90;;;;;;;12.87;66.00;99316.88;433297;1270;97517;-40
2022/08/07 23:03:59;;;;;;;11.80;5.10;;;;;;;12.68;66.14;99316.59;433033;1270;111055;-40
2022/08/07 23:14:10;;;;;;;9.70;4.50;;;;;;;12.53;66.60;99306.14;433148;1270;108936;-40
2022/08/07 23:24:38;;;;;;;5.60;4.30;;;;;;;12.56;67.07;99310.73;433382;1270;97890;-39
2022/08/07 23:35:04;;;;;;;9.50;4.50;;;;;;;12.66;67.42;99302.95;433010;1269;109736;-40
2022/08/07 23:45:18;;;;;;;8.70;5.70;;;;;;;12.48;67.56;99300.95;432852;1271;97906;-40
2022/08/07 23:55:43;;;;;;;6.50;4.20;;;;;;;12.39;67.99;99291.21;432677;1270;97589;-39
